sensor_id;sensor_type;location;lat;lon;timestamp;pressure;altitude;pressure_sealevel;temperature;humidity
48846;BME280;34665;51.886;5.436;2023-05-29T00:01:31;102221.63;;;20.08;81.45
48846;BME280;34665;51.886;5.436;2023-05-29T00:03:57;102218.69;;;20.09;81.70
48846;BME280;34665;51.886;5.436;2023-05-29T00:06:23;102223.69;;;20.12;80.52
48846;BME280;34665;51.886;5.436;2023-05-29T00:08:48;102225.25;;;19.76;83.47
48846;BME280;34665;51.886;5.436;2023-05-29T00:11:14;102232.47;;;19.63;86.75
48846;BME280;34665;51.886;5.436;2023-05-29T00:13:40;102227.81;;;19.71;85.31
48846;BME280;34665;51.886;5.436;2023-05-29T00:16:05;102230.75;;;19.69;85.78
48846;BME280;34665;51.886;5.436;2023-05-29T00:18:31;102223.38;;;19.76;84.99
48846;BME280;34665;51.886;5.436;2023-05-29T00:20:56;102225.84;;;19.78;85.05
48846;BME280;34665;51.886;5.436;2023-05-29T00:23:22;102232.03;;;19.41;89.27
48846;BME280;34665;51.886;5.436;2023-05-29T00:25:47;102221.44;;;19.58;87.34
48846;BME280;34665;51.886;5.436;2023-05-29T00:28:13;102226.88;;;19.58;88.17
48846;BME280;34665;51.886;5.436;2023-05-29T00:30:39;102230.03;;;19.55;87.84
48846;BME280;34665;51.886;5.436;2023-05-29T00:33:05;102237.13;;;19.56;87.12
48846;BME280;34665;51.886;5.436;2023-05-29T00:35:30;102232.69;;;19.62;87.73
48846;BME280;34665;51.886;5.436;2023-05-29T00:37:56;102234.78;;;19.34;91.12
48846;BME280;34665;51.886;5.436;2023-05-29T00:40:22;102241.00;;;19.42;90.31
48846;BME280;34665;51.886;5.436;2023-05-29T00:42:47;102232.06;;;19.09;91.86
48846;BME280;34665;51.886;5.436;2023-05-29T00:45:13;102234.94;;;19.14;92.75
48846;BME280;34665;51.886;5.436;2023-05-29T00:47:42;102236.72;;;19.27;90.98
48846;BME280;34665;51.886;5.436;2023-05-29T00:50:11;102241.47;;;19.39;89.97
48846;BME280;34665;51.886;5.436;2023-05-29T00:52:42;102239.94;;;19.17;91.65
48846;BME280;34665;51.886;5.436;2023-05-29T00:55:08;102237.88;;;19.13;92.37
48846;BME280;34665;51.886;5.436;2023-05-29T00:57:34;102245.94;;;18.87;95.19
48846;BME280;34665;51.886;5.436;2023-05-29T01:00:02;102243.13;;;19.08;93.00
48846;BME280;34665;51.886;5.436;2023-05-29T01:02:30;102245.81;;;19.08;92.57
48846;BME280;34665;51.886;5.436;2023-05-29T01:04:56;102258.09;;;19.17;91.61
48846;BME280;34665;51.886;5.436;2023-05-29T01:07:22;102259.63;;;19.06;91.81
48846;BME280;34665;51.886;5.436;2023-05-29T01:09:47;102260.03;;;19.03;91.92
48846;BME280;34665;51.886;5.436;2023-05-29T01:14:48;102275.06;;;18.99;92.17
48846;BME280;34665;51.886;5.436;2023-05-29T01:17:17;102273.00;;;18.94;92.77
48846;BME280;34665;51.886;5.436;2023-05-29T01:24:58;102270.50;;;18.92;93.36
48846;BME280;34665;51.886;5.436;2023-05-29T01:27:27;102275.91;;;18.92;93.35
48846;BME280;34665;51.886;5.436;2023-05-29T01:29:55;102274.69;;;18.88;93.49
48846;BME280;34665;51.886;5.436;2023-05-29T01:32:20;102274.06;;;18.93;93.22
48846;BME280;34665;51.886;5.436;2023-05-29T01:34:46;102279.88;;;18.90;93.39
48846;BME280;34665;51.886;5.436;2023-05-29T01:37:11;102278.41;;;18.48;98.41
48846;BME280;34665;51.886;5.436;2023-05-29T01:39:36;102286.47;;;18.62;96.41
48846;BME280;34665;51.886;5.436;2023-05-29T01:42:02;102285.22;;;18.65;96.91
48846;BME280;34665;51.886;5.436;2023-05-29T01:44:28;102282.88;;;18.75;96.04
48846;BME280;34665;51.886;5.436;2023-05-29T01:46:54;102288.97;;;18.70;97.27
48846;BME280;34665;51.886;5.436;2023-05-29T01:49:19;102280.53;;;18.92;94.08
48846;BME280;34665;51.886;5.436;2023-05-29T01:51:45;102284.75;;;18.81;94.65
48846;BME280;34665;51.886;5.436;2023-05-29T01:54:11;102280.84;;;18.63;97.43
48846;BME280;34665;51.886;5.436;2023-05-29T01:56:36;102276.94;;;18.53;97.77
48846;BME280;34665;51.886;5.436;2023-05-29T01:59:03;102288.97;;;18.63;97.97
48846;BME280;34665;51.886;5.436;2023-05-29T02:01:29;102286.53;;;18.48;99.33
48846;BME280;34665;51.886;5.436;2023-05-29T02:03:56;102281.47;;;18.59;98.35
48846;BME280;34665;51.886;5.436;2023-05-29T02:06:21;102276.50;;;18.56;98.22
48846;BME280;34665;51.886;5.436;2023-05-29T02:08:47;102278.88;;;18.32;100.00
48846;BME280;34665;51.886;5.436;2023-05-29T02:11:12;102280.91;;;18.43;99.08
48846;BME280;34665;51.886;5.436;2023-05-29T02:13:38;102282.38;;;18.46;98.99
48846;BME280;34665;51.886;5.436;2023-05-29T02:16:03;102279.72;;;18.19;100.00
48846;BME280;34665;51.886;5.436;2023-05-29T02:18:29;102282.63;;;18.31;100.00
48846;BME280;34665;51.886;5.436;2023-05-29T02:20:54;102292.00;;;18.22;100.00
48846;BME280;34665;51.886;5.436;2023-05-29T02:23:21;102291.97;;;18.35;99.44
48846;BME280;34665;51.886;5.436;2023-05-29T02:25:49;102290.75;;;18.24;100.00
48846;BME280;34665;51.886;5.436;2023-05-29T02:28:15;102291.59;;;18.18;100.00
48846;BME280;34665;51.886;5.436;2023-05-29T02:30:41;102295.97;;;18.19;100.00
48846;BME280;34665;51.886;5.436;2023-05-29T02:33:08;102299.09;;;18.23;99.87
48846;BME280;34665;51.886;5.436;2023-05-29T02:35:34;102292.84;;;18.15;99.91
48846;BME280;34665;51.886;5.436;2023-05-29T02:37:59;102280.34;;;18.14;100.00
48846;BME280;34665;51.886;5.436;2023-05-29T02:40:24;102276.78;;;18.20;100.00
48846;BME280;34665;51.886;5.436;2023-05-29T02:42:50;102281.16;;;18.22;99.08
48846;BME280;34665;51.886;5.436;2023-05-29T02:45:16;102288.06;;;17.97;100.00
48846;BME280;34665;51.886;5.436;2023-05-29T02:47:42;102288.91;;;17.84;100.00
48846;BME280;34665;51.886;5.436;2023-05-29T02:50:08;102283.28;;;18.13;99.58
48846;BME280;34665;51.886;5.436;2023-05-29T02:52:34;102286.41;;;17.96;100.00
48846;BME280;34665;51.886;5.436;2023-05-29T02:54:59;102287.84;;;17.99;100.00
48846;BME280;34665;51.886;5.436;2023-05-29T02:57:25;102288.06;;;17.90;100.00
48846;BME280;34665;51.886;5.436;2023-05-29T02:59:50;102282.03;;;17.75;100.00
48846;BME280;34665;51.886;5.436;2023-05-29T03:02:20;102288.06;;;17.90;100.00
48846;BME280;34665;51.886;5.436;2023-05-29T03:04:46;102291.19;;;17.87;99.79
48846;BME280;34665;51.886;5.436;2023-05-29T03:07:12;102298.91;;;17.77;100.00
48846;BME280;34665;51.886;5.436;2023-05-29T03:09:37;102295.75;;;17.67;100.00
48846;BME280;34665;51.886;5.436;2023-05-29T03:12:04;102292.22;;;17.53;100.00
48846;BME280;34665;51.886;5.436;2023-05-29T03:14:30;102293.91;;;17.60;100.00
48846;BME280;34665;51.886;5.436;2023-05-29T03:17:06;102295.56;;;17.68;100.00
48846;BME280;34665;51.886;5.436;2023-05-29T03:19:33;102290.38;;;17.53;100.00
48846;BME280;34665;51.886;5.436;2023-05-29T03:21:59;102291.81;;;17.62;99.79
48846;BME280;34665;51.886;5.436;2023-05-29T03:24:25;102293.25;;;17.78;97.94
48846;BME280;34665;51.886;5.436;2023-05-29T03:26:51;102287.22;;;17.43;100.00
48846;BME280;34665;51.886;5.436;2023-05-29T03:29:17;102290.53;;;17.45;100.00
48846;BME280;34665;51.886;5.436;2023-05-29T03:31:42;102295.13;;;17.51;100.00
48846;BME280;34665;51.886;5.436;2023-05-29T03:34:08;102300.75;;;17.56;99.52
48846;BME280;34665;51.886;5.436;2023-05-29T03:36:44;102298.88;;;17.50;99.50
48846;BME280;34665;51.886;5.436;2023-05-29T03:39:12;102296.78;;;17.52;99.11
48846;BME280;34665;51.886;5.436;2023-05-29T03:41:38;102299.91;;;17.49;99.32
48846;BME280;34665;51.886;5.436;2023-05-29T03:44:04;102292.19;;;17.39;100.00
48846;BME280;34665;51.886;5.436;2023-05-29T03:46:31;102301.88;;;17.06;100.00
48846;BME280;34665;51.886;5.436;2023-05-29T03:48:58;102295.31;;;17.23;100.00
48846;BME280;34665;51.886;5.436;2023-05-29T03:51:23;102302.34;;;17.17;100.00
48846;BME280;34665;51.886;5.436;2023-05-29T03:53:52;102298.59;;;17.18;100.00
48846;BME280;34665;51.886;5.436;2023-05-29T03:56:17;102299.94;;;16.94;100.00
48846;BME280;34665;51.886;5.436;2023-05-29T03:58:43;102311.34;;;17.44;100.00
48846;BME280;34665;51.886;5.436;2023-05-29T04:01:08;102310.31;;;17.52;98.43
48846;BME280;34665;51.886;5.436;2023-05-29T04:03:35;102303.41;;;17.29;99.76
48846;BME280;34665;51.886;5.436;2023-05-29T04:06:01;102308.44;;;17.46;98.82
48846;BME280;34665;51.886;5.436;2023-05-29T04:08:26;102311.34;;;17.44;98.13
48846;BME280;34665;51.886;5.436;2023-05-29T04:10:52;102305.94;;;17.44;98.07
48846;BME280;34665;51.886;5.436;2023-05-29T04:13:21;102312.41;;;17.63;97.34
48846;BME280;34665;51.886;5.436;2023-05-29T04:15:46;102320.72;;;17.69;95.39
48846;BME280;34665;51.886;5.436;2023-05-29T04:18:13;102310.72;;;17.56;96.28
48846;BME280;34665;51.886;5.436;2023-05-29T04:20:38;102316.97;;;17.43;97.99
48846;BME280;34665;51.886;5.436;2023-05-29T04:23:04;102324.91;;;17.78;93.72
48846;BME280;34665;51.886;5.436;2023-05-29T04:25:30;102319.28;;;17.73;92.91
48846;BME280;34665;51.886;5.436;2023-05-29T04:27:57;102326.56;;;17.66;93.17
48846;BME280;34665;51.886;5.436;2023-05-29T04:30:23;102332.81;;;17.59;94.30
48846;BME280;34665;51.886;5.436;2023-05-29T04:32:48;102330.53;;;17.56;93.84
48846;BME280;34665;51.886;5.436;2023-05-29T04:35:14;102321.72;;;17.20;97.09
48846;BME280;34665;51.886;5.436;2023-05-29T04:37:49;102322.34;;;17.23;97.42
48846;BME280;34665;51.886;5.436;2023-05-29T04:40:15;102316.53;;;17.46;95.34
48846;BME280;34665;51.886;5.436;2023-05-29T04:42:44;102317.16;;;17.48;94.84
48846;BME280;34665;51.886;5.436;2023-05-29T04:45:14;102325.31;;;17.61;93.48
48846;BME280;34665;51.886;5.436;2023-05-29T04:47:40;102322.59;;;17.75;91.81
48846;BME280;34665;51.886;5.436;2023-05-29T04:50:13;102337.72;;;17.29;94.84
48846;BME280;34665;51.886;5.436;2023-05-29T04:52:41;102335.50;;;17.59;93.29
48846;BME280;34665;51.886;5.436;2023-05-29T04:55:09;102342.19;;;17.77;92.06
48846;BME280;34665;51.886;5.436;2023-05-29T04:57:36;102341.53;;;17.61;92.55
48846;BME280;34665;51.886;5.436;2023-05-29T05:00:02;102347.34;;;17.52;92.84
48846;BME280;34665;51.886;5.436;2023-05-29T05:02:33;102350.88;;;17.52;93.22
48846;BME280;34665;51.886;5.436;2023-05-29T05:04:59;102359.25;;;17.77;90.99
48846;BME280;34665;51.886;5.436;2023-05-29T05:07:24;102354.38;;;17.32;96.33
48846;BME280;34665;51.886;5.436;2023-05-29T05:09:49;102356.69;;;17.36;95.58
48846;BME280;34665;51.886;5.436;2023-05-29T05:12:20;102364.00;;;17.62;93.07
48846;BME280;34665;51.886;5.436;2023-05-29T05:14:46;102368.44;;;17.90;90.03
48846;BME280;34665;51.886;5.436;2023-05-29T05:17:11;102360.69;;;17.67;91.57
48846;BME280;34665;51.886;5.436;2023-05-29T05:19:37;102366.97;;;17.87;89.16
48846;BME280;34665;51.886;5.436;2023-05-29T05:22:02;102359.44;;;17.76;90.77
48846;BME280;34665;51.886;5.436;2023-05-29T05:24:27;102364.47;;;17.79;89.87
48846;BME280;34665;51.886;5.436;2023-05-29T05:26:53;102366.34;;;17.85;87.58
48846;BME280;34665;51.886;5.436;2023-05-29T05:29:19;102364.84;;;17.62;92.04
48846;BME280;34665;51.886;5.436;2023-05-29T05:31:46;102370.47;;;17.74;89.10
48846;BME280;34665;51.886;5.436;2023-05-29T05:34:11;102364.22;;;17.74;89.08
48846;BME280;34665;51.886;5.436;2023-05-29T05:36:38;102365.91;;;17.88;87.09
48846;BME280;34665;51.886;5.436;2023-05-29T05:39:09;102359.47;;;17.89;88.48
48846;BME280;34665;51.886;5.436;2023-05-29T05:41:35;102365.72;;;17.83;86.49
48846;BME280;34665;51.886;5.436;2023-05-29T05:44:01;102368.81;;;17.87;86.22
48846;BME280;34665;51.886;5.436;2023-05-29T05:46:36;102373.19;;;17.95;84.46
48846;BME280;34665;51.886;5.436;2023-05-29T05:49:02;102363.41;;;17.80;85.07
48846;BME280;34665;51.886;5.436;2023-05-29T05:51:28;102369.03;;;18.32;82.15
48846;BME280;34665;51.886;5.436;2023-05-29T05:53:53;102377.41;;;18.04;82.73
48846;BME280;34665;51.886;5.436;2023-05-29T05:56:19;102378.22;;;17.91;86.12
48846;BME280;34665;51.886;5.436;2023-05-29T05:58:44;102376.97;;;18.27;82.55
48846;BME280;34665;51.886;5.436;2023-05-29T06:01:10;102377.16;;;18.39;81.40
48846;BME280;34665;51.886;5.436;2023-05-29T06:03:36;102375.13;;;18.34;80.69
48846;BME280;34665;51.886;5.436;2023-05-29T06:06:07;102385.06;;;18.54;80.63
48846;BME280;34665;51.886;5.436;2023-05-29T06:08:37;102385.84;;;18.75;78.73
48846;BME280;34665;51.886;5.436;2023-05-29T06:11:03;102381.47;;;18.81;77.06
48846;BME280;34665;51.886;5.436;2023-05-29T06:13:30;102384.44;;;18.59;77.58
48846;BME280;34665;51.886;5.436;2023-05-29T06:16:04;102386.94;;;18.47;78.85
48846;BME280;34665;51.886;5.436;2023-05-29T06:18:29;102395.31;;;18.39;78.44
48846;BME280;34665;51.886;5.436;2023-05-29T06:20:55;102397.34;;;18.70;76.34
48846;BME280;34665;51.886;5.436;2023-05-29T06:23:21;102392.28;;;18.94;74.54
48846;BME280;34665;51.886;5.436;2023-05-29T06:25:48;102388.28;;;18.90;74.27
48846;BME280;34665;51.886;5.436;2023-05-29T06:28:15;102394.75;;;18.96;74.30
48846;BME280;34665;51.886;5.436;2023-05-29T06:30:40;102395.19;;;18.86;75.53
48846;BME280;34665;51.886;5.436;2023-05-29T06:33:07;102391.00;;;18.97;73.42
48846;BME280;34665;51.886;5.436;2023-05-29T06:35:34;102395.94;;;19.20;72.19
48846;BME280;34665;51.886;5.436;2023-05-29T06:38:00;102391.31;;;19.27;71.94
48846;BME280;34665;51.886;5.436;2023-05-29T06:40:26;102400.94;;;19.23;70.73
48846;BME280;34665;51.886;5.436;2023-05-29T06:42:51;102402.13;;;19.41;69.37
48846;BME280;34665;51.886;5.436;2023-05-29T06:45:17;102398.88;;;19.57;67.59
48846;BME280;34665;51.886;5.436;2023-05-29T06:47:43;102385.84;;;19.41;68.04
48846;BME280;34665;51.886;5.436;2023-05-29T06:50:08;102400.97;;;19.55;67.09
48846;BME280;34665;51.886;5.436;2023-05-29T06:52:36;102398.69;;;19.52;68.27
48846;BME280;34665;51.886;5.436;2023-05-29T06:55:16;102400.34;;;19.53;66.64
48846;BME280;34665;51.886;5.436;2023-05-29T06:57:42;102400.59;;;19.84;68.20
48846;BME280;34665;51.886;5.436;2023-05-29T07:00:08;102400.25;;;19.73;65.13
48846;BME280;34665;51.886;5.436;2023-05-29T07:02:40;102399.72;;;19.83;65.05
48846;BME280;34665;51.886;5.436;2023-05-29T07:05:06;102406.97;;;19.64;66.17
48846;BME280;34665;51.886;5.436;2023-05-29T07:07:31;102408.44;;;19.99;64.06
48846;BME280;34665;51.886;5.436;2023-05-29T07:09:57;102413.16;;;19.78;65.95
48846;BME280;34665;51.886;5.436;2023-05-29T07:12:22;102406.59;;;19.92;66.64
48846;BME280;34665;51.886;5.436;2023-05-29T07:14:50;102408.03;;;19.95;65.20
48846;BME280;34665;51.886;5.436;2023-05-29T07:17:15;102415.38;;;20.20;62.62
48846;BME280;34665;51.886;5.436;2023-05-29T07:19:41;102403.78;;;20.06;64.20
48846;BME280;34665;51.886;5.436;2023-05-29T07:22:09;102407.59;;;20.49;63.69
48846;BME280;34665;51.886;5.436;2023-05-29T07:24:36;102409.03;;;20.70;62.10
48846;BME280;34665;51.886;5.436;2023-05-29T07:27:04;102410.81;;;20.83;62.10
48846;BME280;34665;51.886;5.436;2023-05-29T07:29:31;102410.44;;;20.80;60.87
48846;BME280;34665;51.886;5.436;2023-05-29T07:31:57;102408.53;;;20.80;60.87
48846;BME280;34665;51.886;5.436;2023-05-29T07:34:23;102414.44;;;21.14;60.14
48846;BME280;34665;51.886;5.436;2023-05-29T07:37:04;102408.81;;;21.09;59.57
48846;BME280;34665;51.886;5.436;2023-05-29T07:39:33;102412.84;;;21.06;59.92
48846;BME280;34665;51.886;5.436;2023-05-29T07:42:04;102415.09;;;21.28;59.54
48846;BME280;34665;51.886;5.436;2023-05-29T07:44:32;102415.75;;;21.42;58.73
48846;BME280;34665;51.886;5.436;2023-05-29T07:46:58;102418.03;;;21.57;58.73
48846;BME280;34665;51.886;5.436;2023-05-29T07:49:33;102419.09;;;21.26;58.56
48846;BME280;34665;51.886;5.436;2023-05-29T07:52:00;102416.81;;;21.23;58.41
48846;BME280;34665;51.886;5.436;2023-05-29T07:54:26;102424.06;;;21.29;58.26
48846;BME280;34665;51.886;5.436;2023-05-29T07:56:52;102425.19;;;21.40;58.18
48846;BME280;34665;51.886;5.436;2023-05-29T07:59:18;102427.22;;;21.44;59.66
48846;BME280;34665;51.886;5.436;2023-05-29T08:01:43;102416.47;;;21.49;59.00
48846;BME280;34665;51.886;5.436;2023-05-29T08:04:25;102427.97;;;21.82;57.87
48846;BME280;34665;51.886;5.436;2023-05-29T08:06:50;102421.22;;;21.54;58.12
48846;BME280;34665;51.886;5.436;2023-05-29T08:09:17;102434.66;;;21.68;57.79
48846;BME280;34665;51.886;5.436;2023-05-29T08:11:42;102423.00;;;21.79;57.46
48846;BME280;34665;51.886;5.436;2023-05-29T08:14:10;102432.88;;;22.04;57.22
48846;BME280;34665;51.886;5.436;2023-05-29T08:16:37;102435.94;;;21.96;57.98
48846;BME280;34665;51.886;5.436;2023-05-29T08:19:03;102440.25;;;22.39;56.80
48846;BME280;34665;51.886;5.436;2023-05-29T08:21:29;102433.16;;;22.38;56.81
48846;BME280;34665;51.886;5.436;2023-05-29T08:23:55;102432.19;;;22.32;56.38
48846;BME280;34665;51.886;5.436;2023-05-29T08:26:20;102439.22;;;22.64;56.60
48846;BME280;34665;51.886;5.436;2023-05-29T08:28:46;102438.25;;;22.82;55.38
48846;BME280;34665;51.886;5.436;2023-05-29T08:31:11;102440.97;;;22.82;54.19
48846;BME280;34665;51.886;5.436;2023-05-29T08:33:37;102438.47;;;22.81;54.23
48846;BME280;34665;51.886;5.436;2023-05-29T08:36:02;102435.16;;;22.67;55.03
48846;BME280;34665;51.886;5.436;2023-05-29T08:38:28;102440.88;;;23.18;54.01
48846;BME280;34665;51.886;5.436;2023-05-29T08:40:56;102440.88;;;23.18;54.29
48846;BME280;34665;51.886;5.436;2023-05-29T08:43:21;102437.97;;;23.08;53.19
48846;BME280;34665;51.886;5.436;2023-05-29T08:45:48;102440.00;;;23.41;53.58
48846;BME280;34665;51.886;5.436;2023-05-29T08:48:16;102437.03;;;23.43;51.62
48846;BME280;34665;51.886;5.436;2023-05-29T08:50:43;102442.16;;;23.68;51.86
48846;BME280;34665;51.886;5.436;2023-05-29T08:53:13;102443.38;;;23.77;51.58
48846;BME280;34665;51.886;5.436;2023-05-29T08:55:38;102456.41;;;23.87;49.94
48846;BME280;34665;51.886;5.436;2023-05-29T08:58:04;102459.34;;;24.15;50.47
48846;BME280;34665;51.886;5.436;2023-05-29T09:00:30;102446.75;;;24.31;49.16
48846;BME280;34665;51.886;5.436;2023-05-29T09:02:56;102457.25;;;24.39;49.86
48846;BME280;34665;51.886;5.436;2023-05-29T09:05:24;102453.38;;;24.35;48.86
48846;BME280;34665;51.886;5.436;2023-05-29T09:07:57;102457.44;;;24.49;48.17
48846;BME280;34665;51.886;5.436;2023-05-29T09:10:23;102464.13;;;24.59;49.20
48846;BME280;34665;51.886;5.436;2023-05-29T09:12:50;102447.06;;;24.91;48.98
48846;BME280;34665;51.886;5.436;2023-05-29T09:15:20;102461.13;;;25.22;47.28
48846;BME280;34665;51.886;5.436;2023-05-29T09:17:52;102453.31;;;24.86;49.06
48846;BME280;34665;51.886;5.436;2023-05-29T09:20:18;102450.94;;;25.40;47.79
48846;BME280;34665;51.886;5.436;2023-05-29T09:25:20;102454.53;;;25.68;45.98
48846;BME280;34665;51.886;5.436;2023-05-29T09:27:50;102455.81;;;25.60;45.67
48846;BME280;34665;51.886;5.436;2023-05-29T09:33:00;102468.69;;;26.62;43.36
48846;BME280;34665;51.886;5.436;2023-05-29T09:35:36;102452.72;;;26.97;43.63
48846;BME280;34665;51.886;5.436;2023-05-29T09:38:02;102453.31;;;27.10;43.60
48846;BME280;34665;51.886;5.436;2023-05-29T09:40:31;102445.25;;;27.72;42.00
48846;BME280;34665;51.886;5.436;2023-05-29T09:43:13;102456.78;;;28.36;40.69
48846;BME280;34665;51.886;5.436;2023-05-29T09:45:46;102459.22;;;28.58;40.18
48846;BME280;34665;51.886;5.436;2023-05-29T09:48:12;102450.53;;;29.01;40.34
48846;BME280;34665;51.886;5.436;2023-05-29T09:50:39;102452.16;;;29.13;38.68
48846;BME280;34665;51.886;5.436;2023-05-29T09:53:13;102460.44;;;29.08;40.14
48846;BME280;34665;51.886;5.436;2023-05-29T09:55:41;102462.13;;;29.88;38.03
48846;BME280;34665;51.886;5.436;2023-05-29T09:58:07;102461.66;;;30.16;36.96
48846;BME280;34665;51.886;5.436;2023-05-29T10:00:34;102462.78;;;30.69;36.28
48846;BME280;34665;51.886;5.436;2023-05-29T10:02:59;102462.88;;;30.58;35.51
48846;BME280;34665;51.886;5.436;2023-05-29T10:05:24;102457.88;;;31.28;34.31
48846;BME280;34665;51.886;5.436;2023-05-29T10:07:50;102452.50;;;31.18;33.14
48846;BME280;34665;51.886;5.436;2023-05-29T10:10:18;102455.84;;;30.71;34.02
48846;BME280;34665;51.886;5.436;2023-05-29T10:12:45;102449.59;;;31.28;32.90
48846;BME280;34665;51.886;5.436;2023-05-29T10:15:13;102453.69;;;31.50;34.64
48846;BME280;34665;51.886;5.436;2023-05-29T10:17:39;102458.47;;;31.64;33.69
48846;BME280;34665;51.886;5.436;2023-05-29T10:20:09;102454.19;;;31.90;31.32
48846;BME280;34665;51.886;5.436;2023-05-29T10:22:39;102462.81;;;32.36;31.14
48846;BME280;34665;51.886;5.436;2023-05-29T10:25:07;102474.72;;;32.93;30.27
48846;BME280;34665;51.886;5.436;2023-05-29T10:27:34;102466.19;;;32.75;31.94
48846;BME280;34665;51.886;5.436;2023-05-29T10:30:02;102465.41;;;33.25;30.67
48846;BME280;34665;51.886;5.436;2023-05-29T10:32:43;102463.19;;;33.50;30.35
48846;BME280;34665;51.886;5.436;2023-05-29T10:35:18;102463.31;;;33.31;31.28
48846;BME280;34665;51.886;5.436;2023-05-29T10:37:54;102462.50;;;32.80;29.32
48846;BME280;34665;51.886;5.436;2023-05-29T10:40:24;102467.81;;;33.41;29.58
48846;BME280;34665;51.886;5.436;2023-05-29T10:42:51;102453.44;;;33.39;28.90
48846;BME280;34665;51.886;5.436;2023-05-29T10:48:35;102452.13;;;32.71;29.33
48846;BME280;34665;51.886;5.436;2023-05-29T10:50:43;102437.47;;;32.71;29.62
48846;BME280;34665;51.886;5.436;2023-05-29T10:53:08;102442.75;;;33.92;27.89
48846;BME280;34665;51.886;5.436;2023-05-29T10:55:37;102449.16;;;34.64;27.97
48846;BME280;34665;51.886;5.436;2023-05-29T11:00:31;102449.53;;;34.89;26.61
48846;BME280;34665;51.886;5.436;2023-05-29T11:03:01;102451.09;;;34.64;27.01
48846;BME280;34665;51.886;5.436;2023-05-29T11:05:27;102447.72;;;34.84;27.65
48846;BME280;34665;51.886;5.436;2023-05-29T11:07:53;102456.63;;;35.30;25.95
48846;BME280;34665;51.886;5.436;2023-05-29T11:13:04;102441.16;;;34.71;27.54
48846;BME280;34665;51.886;5.436;2023-05-29T11:15:32;102452.06;;;34.59;27.19
48846;BME280;34665;51.886;5.436;2023-05-29T11:18:05;102438.03;;;34.24;28.09
48846;BME280;34665;51.886;5.436;2023-05-29T11:20:43;102449.75;;;35.37;26.95
48846;BME280;34665;51.886;5.436;2023-05-29T11:23:14;102442.09;;;34.58;26.47
48846;BME280;34665;51.886;5.436;2023-05-29T11:25:42;102446.63;;;35.56;25.29
48846;BME280;34665;51.886;5.436;2023-05-29T11:28:09;102441.81;;;35.92;26.23
48846;BME280;34665;51.886;5.436;2023-05-29T11:30:42;102455.72;;;36.39;25.95
48846;BME280;34665;51.886;5.436;2023-05-29T11:33:08;102441.13;;;36.42;26.03
48846;BME280;34665;51.886;5.436;2023-05-29T11:35:41;102446.88;;;35.89;25.79
48846;BME280;34665;51.886;5.436;2023-05-29T11:38:06;102447.78;;;36.59;26.04
48846;BME280;34665;51.886;5.436;2023-05-29T11:40:35;102438.75;;;37.47;25.21
48846;BME280;34665;51.886;5.436;2023-05-29T11:43:01;102442.66;;;38.01;25.15
48846;BME280;34665;51.886;5.436;2023-05-29T11:45:26;102429.88;;;37.33;24.68
48846;BME280;34665;51.886;5.436;2023-05-29T11:47:59;102433.19;;;37.47;23.58
48846;BME280;34665;51.886;5.436;2023-05-29T11:50:28;102435.59;;;37.70;24.56
48846;BME280;34665;51.886;5.436;2023-05-29T11:52:55;102448.03;;;38.19;23.46
48846;BME280;34665;51.886;5.436;2023-05-29T11:55:20;102442.25;;;37.90;23.03
48846;BME280;34665;51.886;5.436;2023-05-29T11:57:47;102434.34;;;37.92;23.12
48846;BME280;34665;51.886;5.436;2023-05-29T12:00:13;102430.88;;;37.95;23.28
48846;BME280;34665;51.886;5.436;2023-05-29T12:02:39;102431.78;;;37.41;23.82
48846;BME280;34665;51.886;5.436;2023-05-29T12:05:07;102436.41;;;37.15;23.96
48846;BME280;34665;51.886;5.436;2023-05-29T12:07:33;102435.13;;;37.13;23.78
48846;BME280;34665;51.886;5.436;2023-05-29T12:10:12;102433.31;;;37.17;23.67
48846;BME280;34665;51.886;5.436;2023-05-29T12:12:38;102443.22;;;37.27;23.21
48846;BME280;34665;51.886;5.436;2023-05-29T12:15:05;102441.88;;;37.67;23.11
48846;BME280;34665;51.886;5.436;2023-05-29T12:17:32;102445.25;;;37.17;22.75
48846;BME280;34665;51.886;5.436;2023-05-29T12:19:57;102421.28;;;37.59;22.06
48846;BME280;34665;51.886;5.436;2023-05-29T12:22:33;102416.94;;;37.49;23.75
48846;BME280;34665;51.886;5.436;2023-05-29T12:25:44;102428.84;;;37.71;23.51
48846;BME280;34665;51.886;5.436;2023-05-29T12:27:49;102422.28;;;38.13;23.32
48846;BME280;34665;51.886;5.436;2023-05-29T12:32:41;102421.06;;;38.89;21.96
48846;BME280;34665;51.886;5.436;2023-05-29T12:37:42;102431.66;;;39.97;21.34
48846;BME280;34665;51.886;5.436;2023-05-29T12:40:09;102422.97;;;39.70;20.95
48846;BME280;34665;51.886;5.436;2023-05-29T12:42:37;102419.44;;;39.57;22.40
48846;BME280;34665;51.886;5.436;2023-05-29T12:45:03;102427.44;;;39.42;20.66
48846;BME280;34665;51.886;5.436;2023-05-29T12:47:29;102421.34;;;39.12;22.51
48846;BME280;34665;51.886;5.436;2023-05-29T12:49:54;102420.97;;;38.72;22.96
48846;BME280;34665;51.886;5.436;2023-05-29T12:52:21;102424.56;;;38.85;22.72
48846;BME280;34665;51.886;5.436;2023-05-29T12:54:48;102429.66;;;38.55;21.46
48846;BME280;34665;51.886;5.436;2023-05-29T12:57:14;102426.50;;;38.19;22.44
48846;BME280;34665;51.886;5.436;2023-05-29T12:59:39;102430.06;;;38.82;21.11
48846;BME280;34665;51.886;5.436;2023-05-29T13:02:06;102422.56;;;38.98;21.54
48846;BME280;34665;51.886;5.436;2023-05-29T13:04:33;102431.03;;;39.14;22.37
48846;BME280;34665;51.886;5.436;2023-05-29T13:06:59;102423.72;;;38.44;21.37
48846;BME280;34665;51.886;5.436;2023-05-29T13:09:24;102419.13;;;39.46;22.40
48846;BME280;34665;51.886;5.436;2023-05-29T13:11:50;102428.91;;;38.70;21.39
48846;BME280;34665;51.886;5.436;2023-05-29T13:14:15;102432.34;;;39.05;21.01